Time;durP1;ratioP1;P1;durP2;ratioP2;P2;SDS_P1;SDS_P2;PMS_P1;PMS_P2;Temp;Humidity;BMP_temperature;BMP_pressure;BME280_temperature;BME280_humidity;BME280_pressure;Samples;Min_cycle;Max_cycle;Signal;HPM_P1;HPM_P2
2022/07/07 00:01:29;;;;;;;0.00;0.00;;;;;;;;;;5084145;28;20080;-57
2022/07/07 00:03:57;;;;;;;0.00;0.00;;;;;;;;;;5075941;28;20502;-57
2022/07/07 00:06:23;;;;;;;0.00;0.00;;;;;;;;;;5081876;28;20552;-57
2022/07/07 00:08:54;;;;;;;0.00;0.00;;;;;;;;;;5079988;28;20091;-57
2022/07/07 00:11:21;;;;;;;0.00;0.00;;;;;;;;;;5070328;28;20511;-57
2022/07/07 00:13:47;;;;;;;0.00;0.00;;;;;;;;;;5087778;28;20102;-58
2022/07/07 00:16:14;;;;;;;0.00;0.00;;;;;;;;;;5074504;28;20242;-57
2022/07/07 00:18:40;;;;;;;0.00;0.00;;;;;;;;;;5083152;28;20049;-57
2022/07/07 00:21:06;;;;;;;0.00;0.00;;;;;;;;;;5085219;28;20091;-57
2022/07/07 00:23:33;;;;;;;0.00;0.00;;;;;;;;;;5085196;28;20150;-57
2022/07/07 00:25:59;;;;;;;0.00;0.00;;;;;;;;;;5086722;28;20083;-56
2022/07/07 00:28:25;;;;;;;0.00;0.00;;;;;;;;;;5086642;28;20102;-57
2022/07/07 00:30:52;;;;;;;0.00;0.00;;;;;;;;;;5079672;28;20174;-57
2022/07/07 00:33:18;;;;;;;0.00;0.00;;;;;;;;;;5068728;28;20085;-57
2022/07/07 00:35:44;;;;;;;0.00;0.00;;;;;;;;;;5081194;28;20056;-57
2022/07/07 00:38:11;;;;;;;0.00;0.00;;;;;;;;;;5083331;28;20118;-57
2022/07/07 00:40:37;;;;;;;0.00;0.00;;;;;;;;;;5070878;28;20143;-57
2022/07/07 00:43:04;;;;;;;0.00;0.00;;;;;;;;;;5071100;28;20127;-57
2022/07/07 00:45:30;;;;;;;0.00;0.00;;;;;;;;;;5071395;28;20500;-57
2022/07/07 00:47:58;;;;;;;0.00;0.00;;;;;;;;;;5085983;28;20146;-57
2022/07/07 00:50:25;;;;;;;0.00;0.00;;;;;;;;;;5084335;28;20145;-57
2022/07/07 00:52:51;;;;;;;0.00;0.00;;;;;;;;;;5076629;28;20122;-57
2022/07/07 00:55:18;;;;;;;0.10;0.10;;;;;;;;;;5066607;28;20057;-57
2022/07/07 00:57:44;;;;;;;0.00;0.00;;;;;;;;;;5078269;28;20053;-57
2022/07/07 01:00:12;;;;;;;0.00;0.00;;;;;;;;;;5069497;28;20087;-57
2022/07/07 01:02:39;;;;;;;0.00;0.00;;;;;;;;;;5073981;28;20080;-57
2022/07/07 01:05:06;;;;;;;0.00;0.00;;;;;;;;;;5086068;28;20060;-57
2022/07/07 01:07:33;;;;;;;0.00;0.00;;;;;;;;;;5076328;28;20111;-56
2022/07/07 01:10:00;;;;;;;0.00;0.00;;;;;;;;;;5068903;28;20057;-57
2022/07/07 01:12:32;;;;;;;0.00;0.00;;;;;;;;;;5076007;28;20057;-56
2022/07/07 01:14:58;;;;;;;0.00;0.00;;;;;;;;;;5068693;28;20107;-57
2022/07/07 01:17:24;;;;;;;0.00;0.00;;;;;;;;;;5074232;28;20048;-57
2022/07/07 01:19:51;;;;;;;0.00;0.00;;;;;;;;;;5084444;28;20088;-55
2022/07/07 01:22:20;;;;;;;0.00;0.00;;;;;;;;;;5080718;28;20053;-57
2022/07/07 01:24:46;;;;;;;0.00;0.00;;;;;;;;;;5083845;28;20115;-57
2022/07/07 01:27:13;;;;;;;0.00;0.00;;;;;;;;;;5078462;28;20088;-57
2022/07/07 01:29:41;;;;;;;0.00;0.00;;;;;;;;;;5084084;28;20053;-57
2022/07/07 01:32:08;;;;;;;0.00;0.00;;;;;;;;;;5069591;28;20049;-57
2022/07/07 01:34:35;;;;;;;0.00;0.00;;;;;;;;;;5083225;28;20064;-57
2022/07/07 01:37:02;;;;;;;0.00;0.00;;;;;;;;;;5069839;28;20052;-57
2022/07/07 01:39:28;;;;;;;0.00;0.00;;;;;;;;;;5087185;28;20171;-56
2022/07/07 01:41:55;;;;;;;0.00;0.00;;;;;;;;;;5075123;28;20085;-57
2022/07/07 01:44:21;;;;;;;0.00;0.00;;;;;;;;;;5069378;28;20080;-57
2022/07/07 01:46:48;;;;;;;0.10;0.10;;;;;;;;;;5067020;28;20150;-57
2022/07/07 01:49:14;;;;;;;0.00;0.00;;;;;;;;;;5086281;28;20115;-57
2022/07/07 01:51:41;;;;;;;0.00;0.00;;;;;;;;;;5074006;28;20141;-57
2022/07/07 01:54:07;;;;;;;0.00;0.00;;;;;;;;;;5075104;28;20114;-57
2022/07/07 01:56:34;;;;;;;0.00;0.00;;;;;;;;;;5083548;28;20102;-57
2022/07/07 01:59:00;;;;;;;0.00;0.00;;;;;;;;;;5086873;28;20053;-57
2022/07/07 02:01:26;;;;;;;0.00;0.00;;;;;;;;;;5084855;28;20118;-57
2022/07/07 02:03:53;;;;;;;0.00;0.00;;;;;;;;;;5078261;28;20546;-55
2022/07/07 02:06:20;;;;;;;0.00;0.00;;;;;;;;;;5066420;28;20045;-54
2022/07/07 02:08:46;;;;;;;0.00;0.00;;;;;;;;;;5072979;28;20087;-57
2022/07/07 02:11:12;;;;;;;0.00;0.00;;;;;;;;;;5075238;28;20207;-57
2022/07/07 02:13:39;;;;;;;0.00;0.00;;;;;;;;;;5069024;28;20072;-57
2022/07/07 02:16:05;;;;;;;0.00;0.00;;;;;;;;;;5085477;28;20103;-57
2022/07/07 02:18:36;;;;;;;0.00;0.00;;;;;;;;;;5089376;28;20103;-57
2022/07/07 02:21:03;;;;;;;0.00;0.00;;;;;;;;;;5084293;28;20920;-57
2022/07/07 02:23:30;;;;;;;0.00;0.00;;;;;;;;;;5089006;28;20048;-56
2022/07/07 02:25:56;;;;;;;0.00;0.00;;;;;;;;;;5072488;28;20135;-57
2022/07/07 02:28:23;;;;;;;0.00;0.00;;;;;;;;;;5078980;28;20080;-57
2022/07/07 02:30:50;;;;;;;0.00;0.00;;;;;;;;;;5068060;28;20053;-57
2022/07/07 02:33:17;;;;;;;0.20;0.20;;;;;;;;;;5077969;28;20079;-57
2022/07/07 02:35:43;;;;;;;0.00;0.00;;;;;;;;;;5073365;28;20061;-57
2022/07/07 02:38:10;;;;;;;0.00;0.00;;;;;;;;;;5086393;28;20400;-57
2022/07/07 02:40:36;;;;;;;0.00;0.00;;;;;;;;;;5068960;28;20115;-57
2022/07/07 02:43:02;;;;;;;0.00;0.00;;;;;;;;;;5073562;28;20058;-57
2022/07/07 02:45:29;;;;;;;0.00;0.00;;;;;;;;;;5070250;28;20053;-57
2022/07/07 02:47:55;;;;;;;0.00;0.00;;;;;;;;;;5073234;28;20162;-57
2022/07/07 02:50:22;;;;;;;0.00;0.00;;;;;;;;;;5069860;28;20384;-57
2022/07/07 02:52:48;;;;;;;0.00;0.00;;;;;;;;;;5076162;28;20490;-57
2022/07/07 02:55:14;;;;;;;0.00;0.00;;;;;;;;;;5082326;28;20072;-56
2022/07/07 02:57:41;;;;;;;0.00;0.00;;;;;;;;;;5070383;28;20058;-57
2022/07/07 03:00:10;;;;;;;0.00;0.00;;;;;;;;;;5084129;28;20057;-55
2022/07/07 03:02:36;;;;;;;0.00;0.00;;;;;;;;;;5083730;28;20150;-57
2022/07/07 03:05:03;;;;;;;0.00;0.00;;;;;;;;;;5077688;28;20134;-57
2022/07/07 03:07:29;;;;;;;0.00;0.00;;;;;;;;;;5068983;28;20150;-57
2022/07/07 03:09:55;;;;;;;0.00;0.00;;;;;;;;;;5069165;28;20091;-57
2022/07/07 03:12:22;;;;;;;0.00;0.00;;;;;;;;;;5073741;28;20118;-57
2022/07/07 03:14:48;;;;;;;0.00;0.00;;;;;;;;;;5080247;28;20093;-57
2022/07/07 03:17:15;;;;;;;0.00;0.00;;;;;;;;;;5068442;28;20107;-56
2022/07/07 03:19:41;;;;;;;0.00;0.00;;;;;;;;;;5072794;28;20138;-57
2022/07/07 03:22:07;;;;;;;0.00;0.00;;;;;;;;;;5068695;28;20057;-57
2022/07/07 03:24:34;;;;;;;0.00;0.00;;;;;;;;;;5071120;28;22061;-57
2022/07/07 03:27:00;;;;;;;0.00;0.00;;;;;;;;;;5083329;28;20115;-57
2022/07/07 03:29:26;;;;;;;0.00;0.00;;;;;;;;;;5079591;28;20084;-57
2022/07/07 03:31:53;;;;;;;0.00;0.00;;;;;;;;;;5070943;28;20434;-57
2022/07/07 03:34:19;;;;;;;0.00;0.00;;;;;;;;;;5084811;28;20123;-57
2022/07/07 03:36:45;;;;;;;0.00;0.00;;;;;;;;;;5083635;28;20076;-57
2022/07/07 03:39:12;;;;;;;0.00;0.00;;;;;;;;;;5089243;28;20080;-57
2022/07/07 03:41:38;;;;;;;0.00;0.00;;;;;;;;;;5075667;28;20138;-57
2022/07/07 03:44:04;;;;;;;0.10;0.00;;;;;;;;;;5080103;28;20053;-56
2022/07/07 03:46:31;;;;;;;0.00;0.00;;;;;;;;;;5068889;28;20126;-57
2022/07/07 03:48:57;;;;;;;0.00;0.00;;;;;;;;;;5068107;28;20040;-57
2022/07/07 03:51:24;;;;;;;0.00;0.00;;;;;;;;;;5068661;28;20111;-57
2022/07/07 03:53:50;;;;;;;0.00;0.00;;;;;;;;;;5068502;28;20076;-57
2022/07/07 03:56:16;;;;;;;0.00;0.00;;;;;;;;;;5084106;28;20436;-56
2022/07/07 03:58:43;;;;;;;0.00;0.00;;;;;;;;;;5070325;28;20045;-57
2022/07/07 04:01:09;;;;;;;0.00;0.00;;;;;;;;;;5086660;28;20515;-57
2022/07/07 04:03:37;;;;;;;0.00;0.00;;;;;;;;;;5086035;28;20143;-57
2022/07/07 04:06:04;;;;;;;0.28;0.10;;;;;;;;;;5082533;28;20534;-57
2022/07/07 04:08:31;;;;;;;0.00;0.00;;;;;;;;;;5088224;28;20084;-58
2022/07/07 04:10:57;;;;;;;0.00;0.00;;;;;;;;;;5073118;28;20138;-57
2022/07/07 04:13:24;;;;;;;0.00;0.00;;;;;;;;;;5071684;28;20211;-56
2022/07/07 04:15:51;;;;;;;0.00;0.00;;;;;;;;;;5070441;28;20065;-57
2022/07/07 04:18:18;;;;;;;0.00;0.00;;;;;;;;;;5073148;28;20052;-57
2022/07/07 04:20:44;;;;;;;0.00;0.00;;;;;;;;;;5081348;28;21001;-57
2022/07/07 04:23:10;;;;;;;0.00;0.00;;;;;;;;;;5073566;28;20087;-57
2022/07/07 04:25:37;;;;;;;0.00;0.00;;;;;;;;;;5065730;28;20076;-58
2022/07/07 04:28:03;;;;;;;0.00;0.00;;;;;;;;;;5078917;28;20080;-57
2022/07/07 04:30:29;;;;;;;0.00;0.00;;;;;;;;;;5087150;28;20076;-56
2022/07/07 04:32:56;;;;;;;0.00;0.00;;;;;;;;;;5087221;28;20053;-56
2022/07/07 04:35:22;;;;;;;0.00;0.00;;;;;;;;;;5085080;28;20568;-57
2022/07/07 04:37:49;;;;;;;0.00;0.00;;;;;;;;;;5082059;28;20064;-57
2022/07/07 04:40:15;;;;;;;0.00;0.00;;;;;;;;;;5079436;28;20503;-57
2022/07/07 04:42:41;;;;;;;0.00;0.00;;;;;;;;;;5075138;28;20072;-57
2022/07/07 04:45:08;;;;;;;0.10;0.00;;;;;;;;;;5079772;28;20163;-57
2022/07/07 04:47:44;;;;;;;0.00;0.00;;;;;;;;;;5077223;28;20110;-57
2022/07/07 04:50:11;;;;;;;0.30;0.10;;;;;;;;;;5077410;28;20041;-57
2022/07/07 04:52:37;;;;;;;0.00;0.00;;;;;;;;;;5074997;28;20052;-57
2022/07/07 04:55:04;;;;;;;0.00;0.00;;;;;;;;;;5076178;28;20175;-58
2022/07/07 04:57:31;;;;;;;0.00;0.00;;;;;;;;;;5076939;28;20080;-57
2022/07/07 04:59:57;;;;;;;0.00;0.00;;;;;;;;;;5079229;28;20522;-57
2022/07/07 05:02:24;;;;;;;0.00;0.00;;;;;;;;;;5067021;28;20088;-57
2022/07/07 05:04:50;;;;;;;0.00;0.00;;;;;;;;;;5067584;28;20928;-56
2022/07/07 05:07:18;;;;;;;0.00;0.00;;;;;;;;;;5069600;28;20080;-57
2022/07/07 05:09:45;;;;;;;0.00;0.00;;;;;;;;;;5087258;28;20053;-57
2022/07/07 05:12:11;;;;;;;0.00;0.00;;;;;;;;;;5085260;28;20107;-57
2022/07/07 05:14:38;;;;;;;0.00;0.00;;;;;;;;;;5085361;28;20056;-57
2022/07/07 05:17:04;;;;;;;0.00;0.00;;;;;;;;;;5089009;28;20118;-57
2022/07/07 05:19:31;;;;;;;0.00;0.00;;;;;;;;;;5079156;28;20131;-57
2022/07/07 05:21:57;;;;;;;0.00;0.00;;;;;;;;;;5089913;28;20122;-57
2022/07/07 05:24:24;;;;;;;0.00;0.00;;;;;;;;;;5081266;28;20040;-57
2022/07/07 05:26:50;;;;;;;0.00;0.00;;;;;;;;;;5082875;28;20080;-57
2022/07/07 05:29:16;;;;;;;0.00;0.00;;;;;;;;;;5095549;27;20129;-58
2022/07/07 05:31:43;;;;;;;0.00;0.00;;;;;;;;;;5092724;27;20080;-57
2022/07/07 05:34:09;;;;;;;0.00;0.00;;;;;;;;;;5077293;28;20146;-57
2022/07/07 05:36:35;;;;;;;0.00;0.00;;;;;;;;;;5073733;27;20049;-58
2022/07/07 05:39:02;;;;;;;0.00;0.00;;;;;;;;;;5067321;28;20081;-58
2022/07/07 05:41:28;;;;;;;0.00;0.00;;;;;;;;;;5069976;28;20150;-59
2022/07/07 05:43:55;;;;;;;0.00;0.00;;;;;;;;;;5078849;28;20080;-58
2022/07/07 05:46:21;;;;;;;0.00;0.00;;;;;;;;;;5069414;28;20080;-58
2022/07/07 05:48:47;;;;;;;0.00;0.00;;;;;;;;;;5074020;28;20534;-60
2022/07/07 05:51:14;;;;;;;0.00;0.00;;;;;;;;;;5074188;28;20499;-59
2022/07/07 05:53:40;;;;;;;0.00;0.00;;;;;;;;;;5070492;28;20119;-57
2022/07/07 05:56:07;;;;;;;0.00;0.00;;;;;;;;;;5071141;28;20083;-57
2022/07/07 05:58:33;;;;;;;0.00;0.00;;;;;;;;;;5069994;28;20126;-58
2022/07/07 06:00:59;;;;;;;0.00;0.00;;;;;;;;;;5070100;28;20049;-58
2022/07/07 06:03:26;;;;;;;0.00;0.00;;;;;;;;;;5072086;28;20138;-58
2022/07/07 06:05:53;;;;;;;0.00;0.00;;;;;;;;;;5082136;28;20060;-59
2022/07/07 06:08:19;;;;;;;0.00;0.00;;;;;;;;;;5082137;28;20056;-59
2022/07/07 06:10:46;;;;;;;0.00;0.00;;;;;;;;;;5079541;28;20664;-58
2022/07/07 06:13:12;;;;;;;0.00;0.00;;;;;;;;;;5084910;28;20485;-58
2022/07/07 06:15:38;;;;;;;0.00;0.00;;;;;;;;;;5081730;28;20088;-57
2022/07/07 06:18:05;;;;;;;0.00;0.00;;;;;;;;;;5082339;28;20103;-59
2022/07/07 06:20:35;;;;;;;0.00;0.00;;;;;;;;;;5072961;28;20057;-58
2022/07/07 06:23:01;;;;;;;0.00;0.00;;;;;;;;;;5082677;28;20078;-58
2022/07/07 06:25:27;;;;;;;0.00;0.00;;;;;;;;;;5090051;28;20076;-58
2022/07/07 06:27:54;;;;;;;0.00;0.00;;;;;;;;;;5075018;28;20044;-59
2022/07/07 06:30:21;;;;;;;0.00;0.00;;;;;;;;;;5070998;28;20049;-58
2022/07/07 06:32:47;;;;;;;0.00;0.00;;;;;;;;;;5077687;28;20137;-58
2022/07/07 06:35:14;;;;;;;0.00;0.00;;;;;;;;;;5075470;28;20091;-58
2022/07/07 06:37:41;;;;;;;0.00;0.00;;;;;;;;;;5069487;28;20478;-58
2022/07/07 06:40:07;;;;;;;0.00;0.00;;;;;;;;;;5071057;28;20092;-58
2022/07/07 06:42:34;;;;;;;0.00;0.00;;;;;;;;;;5089039;28;20107;-58
2022/07/07 06:45:00;;;;;;;0.00;0.00;;;;;;;;;;5090054;28;20049;-58
2022/07/07 06:47:27;;;;;;;0.00;0.00;;;;;;;;;;5079950;28;20570;-61
2022/07/07 06:49:54;;;;;;;0.00;0.00;;;;;;;;;;5094112;27;20076;-60
2022/07/07 06:52:20;;;;;;;0.00;0.00;;;;;;;;;;5087362;28;20096;-59
2022/07/07 06:54:46;;;;;;;0.00;0.00;;;;;;;;;;5101210;28;20889;-59
2022/07/07 06:57:15;;;;;;;0.00;0.00;;;;;;;;;;5110735;28;20514;-59
2022/07/07 06:59:41;;;;;;;;;;;;;;;;;;5101037;27;20064;-59
2022/07/07 07:02:07;;;;;;;0.00;0.00;;;;;;;;;;5108066;28;44750;-59
2022/07/07 07:04:34;;;;;;;0.00;0.00;;;;;;;;;;5105685;27;20092;-59
2022/07/07 07:07:00;;;;;;;0.00;0.00;;;;;;;;;;5068860;28;20052;-59
2022/07/07 07:09:27;;;;;;;0.00;0.00;;;;;;;;;;5068871;28;20057;-59
2022/07/07 07:11:54;;;;;;;0.00;0.00;;;;;;;;;;5072973;28;20580;-58
2022/07/07 07:14:24;;;;;;;0.00;0.00;;;;;;;;;;5087806;28;20052;-58
2022/07/07 07:16:50;;;;;;;1.17;0.43;;;;;;;;;;5089428;28;20495;-58
2022/07/07 07:19:17;;;;;;;0.08;0.03;;;;;;;;;;5089765;28;20056;-58
2022/07/07 07:21:43;;;;;;;0.00;0.00;;;;;;;;;;5089184;28;20052;-58
2022/07/07 07:24:11;;;;;;;0.00;0.00;;;;;;;;;;5088475;28;21581;-58
2022/07/07 07:26:38;;;;;;;;;;;;;;;;;;5082786;28;20366;-58
2022/07/07 07:29:09;;;;;;;0.00;0.00;;;;;;;;;;5088478;28;43277;-58
2022/07/07 07:31:36;;;;;;;0.00;0.00;;;;;;;;;;5089285;28;20091;-58
2022/07/07 07:34:02;;;;;;;0.00;0.00;;;;;;;;;;5089237;28;20056;-58
2022/07/07 07:36:29;;;;;;;0.00;0.00;;;;;;;;;;5069978;28;20071;-58
2022/07/07 07:38:55;;;;;;;0.00;0.00;;;;;;;;;;5069547;28;20143;-57
2022/07/07 07:41:21;;;;;;;0.00;0.00;;;;;;;;;;5067773;28;20056;-57
2022/07/07 07:43:48;;;;;;;0.00;0.00;;;;;;;;;;5068830;28;20045;-58
2022/07/07 07:46:14;;;;;;;0.00;0.00;;;;;;;;;;5086280;28;20084;-58
2022/07/07 07:48:41;;;;;;;0.00;0.00;;;;;;;;;;5088613;28;20542;-58
2022/07/07 07:51:07;;;;;;;0.00;0.00;;;;;;;;;;5088737;28;20084;-58
2022/07/07 07:53:33;;;;;;;0.00;0.00;;;;;;;;;;5088860;28;20152;-58
2022/07/07 07:56:00;;;;;;;0.00;0.00;;;;;;;;;;5073615;28;20076;-58
2022/07/07 07:58:26;;;;;;;0.00;0.00;;;;;;;;;;5084503;28;20060;-58
2022/07/07 08:00:53;;;;;;;0.00;0.00;;;;;;;;;;5088374;28;20114;-58
2022/07/07 08:03:19;;;;;;;0.00;0.00;;;;;;;;;;5068315;28;20835;-58
2022/07/07 08:05:46;;;;;;;0.00;0.00;;;;;;;;;;5067866;28;20115;-58
2022/07/07 08:08:13;;;;;;;0.00;0.00;;;;;;;;;;5069558;28;20897;-58
2022/07/07 08:10:40;;;;;;;0.00;0.00;;;;;;;;;;5067373;28;20547;-58
2022/07/07 08:13:06;;;;;;;0.00;0.00;;;;;;;;;;5068072;28;20504;-58
2022/07/07 08:15:32;;;;;;;0.00;0.00;;;;;;;;;;5068369;28;20117;-58
2022/07/07 08:17:59;;;;;;;0.00;0.00;;;;;;;;;;5069037;28;20111;-58
2022/07/07 08:20:26;;;;;;;0.22;0.20;;;;;;;;;;5067695;28;20103;-58
2022/07/07 08:22:52;;;;;;;0.00;0.00;;;;;;;;;;5086105;28;20053;-58
2022/07/07 08:25:18;;;;;;;0.00;0.00;;;;;;;;;;5078006;28;20110;-58
2022/07/07 08:27:45;;;;;;;0.00;0.00;;;;;;;;;;5068679;28;20053;-58
2022/07/07 08:30:11;;;;;;;0.00;0.00;;;;;;;;;;5078211;28;20508;-58
2022/07/07 08:32:38;;;;;;;0.00;0.00;;;;;;;;;;5071441;28;20045;-58
2022/07/07 08:35:04;;;;;;;0.00;0.00;;;;;;;;;;5068065;28;20146;-58
2022/07/07 08:37:31;;;;;;;0.00;0.00;;;;;;;;;;5068030;28;20148;-58
2022/07/07 08:39:57;;;;;;;0.00;0.00;;;;;;;;;;5067051;28;20084;-58
2022/07/07 08:42:24;;;;;;;0.00;0.00;;;;;;;;;;5081519;28;20607;-58
2022/07/07 08:44:50;;;;;;;0.00;0.00;;;;;;;;;;5088667;28;20061;-58
2022/07/07 08:47:17;;;;;;;0.00;0.00;;;;;;;;;;5074096;28;20049;-58
2022/07/07 08:49:44;;;;;;;0.00;0.00;;;;;;;;;;5068380;28;20053;-58
2022/07/07 08:52:10;;;;;;;0.00;0.00;;;;;;;;;;5079534;28;20102;-58
2022/07/07 08:54:38;;;;;;;0.00;0.00;;;;;;;;;;5088855;28;20060;-58
2022/07/07 08:57:04;;;;;;;0.00;0.00;;;;;;;;;;5085904;28;20056;-58
2022/07/07 08:59:31;;;;;;;0.10;0.10;;;;;;;;;;5086715;28;20592;-57
2022/07/07 09:02:04;;;;;;;0.00;0.00;;;;;;;;;;5087967;28;20114;-58
2022/07/07 09:04:30;;;;;;;0.00;0.00;;;;;;;;;;5086594;28;20118;-59
2022/07/07 09:07:00;;;;;;;0.00;0.00;;;;;;;;;;5088230;28;20542;-57
2022/07/07 09:09:29;;;;;;;0.00;0.00;;;;;;;;;;5086624;28;20146;-56
2022/07/07 09:12:02;;;;;;;0.00;0.00;;;;;;;;;;5088050;28;20080;-55
2022/07/07 09:14:34;;;;;;;0.00;0.00;;;;;;;;;;5087763;28;20045;-57
2022/07/07 09:17:01;;;;;;;0.00;0.00;;;;;;;;;;5071527;28;20057;-59
2022/07/07 09:19:28;;;;;;;0.00;0.00;;;;;;;;;;5067305;28;20057;-57
2022/07/07 09:21:54;;;;;;;0.00;0.00;;;;;;;;;;5068908;28;20053;-59
2022/07/07 09:24:20;;;;;;;0.00;0.00;;;;;;;;;;5088044;28;20064;-56
2022/07/07 09:26:54;;;;;;;0.00;0.00;;;;;;;;;;5091404;28;20052;-55
2022/07/07 09:29:22;;;;;;;0.00;0.00;;;;;;;;;;5089993;28;20052;-56
2022/07/07 09:31:49;;;;;;;0.00;0.00;;;;;;;;;;5091377;28;20083;-54
2022/07/07 09:34:15;;;;;;;0.00;0.00;;;;;;;;;;5091107;28;20469;-56
2022/07/07 09:39:43;;;;;;;0.00;0.00;;;;;;;;;;5090804;28;20554;-56
2022/07/07 09:42:31;;;;;;;0.00;0.00;;;;;;;;;;5091284;28;20067;-55
2022/07/07 09:45:02;;;;;;;0.00;0.00;;;;;;;;;;5091248;28;20582;-55
2022/07/07 09:47:29;;;;;;;0.00;0.00;;;;;;;;;;5088721;28;20110;-61
2022/07/07 09:50:06;;;;;;;0.00;0.00;;;;;;;;;;5070776;28;20533;-54
2022/07/07 09:52:34;;;;;;;0.00;0.00;;;;;;;;;;5070185;28;20057;-52
2022/07/07 09:55:01;;;;;;;0.00;0.00;;;;;;;;;;5069569;28;20106;-54
2022/07/07 09:57:28;;;;;;;0.00;0.00;;;;;;;;;;5070306;28;20518;-55
2022/07/07 09:59:55;;;;;;;0.00;0.00;;;;;;;;;;5070449;28;20072;-54
2022/07/07 10:02:25;;;;;;;0.00;0.00;;;;;;;;;;5069721;28;20439;-55
2022/07/07 10:04:53;;;;;;;0.00;0.00;;;;;;;;;;5070452;28;20061;-55
2022/07/07 10:07:23;;;;;;;0.00;0.00;;;;;;;;;;5070486;28;20092;-53
2022/07/07 10:09:57;;;;;;;0.00;0.00;;;;;;;;;;5071206;28;20080;-54
2022/07/07 10:12:24;;;;;;;0.00;0.00;;;;;;;;;;5069763;28;20061;-55
2022/07/07 10:14:54;;;;;;;0.00;0.00;;;;;;;;;;5069919;28;20080;-55
2022/07/07 10:17:21;;;;;;;0.05;0.05;;;;;;;;;;5070082;28;20044;-55
2022/07/07 10:19:48;;;;;;;0.00;0.00;;;;;;;;;;5069425;28;20123;-55
2022/07/07 10:22:16;;;;;;;0.00;0.00;;;;;;;;;;5069603;28;20077;-56
2022/07/07 10:24:43;;;;;;;0.00;0.00;;;;;;;;;;5070431;28;20186;-55
2022/07/07 10:27:13;;;;;;;0.00;0.00;;;;;;;;;;5069532;28;20084;-54
2022/07/07 10:29:47;;;;;;;0.00;0.00;;;;;;;;;;5070411;28;20076;-53
2022/07/07 10:32:15;;;;;;;0.00;0.00;;;;;;;;;;5069549;28;20053;-61
2022/07/07 10:34:48;;;;;;;0.00;0.00;;;;;;;;;;5068942;28;20057;-60
2022/07/07 10:37:14;;;;;;;0.00;0.00;;;;;;;;;;5070474;28;20052;-60
2022/07/07 10:39:42;;;;;;;0.00;0.00;;;;;;;;;;5069678;28;20056;-59
2022/07/07 10:42:15;;;;;;;0.00;0.00;;;;;;;;;;5069551;28;20088;-61
2022/07/07 10:44:42;;;;;;;0.00;0.00;;;;;;;;;;5068745;28;20053;-61
2022/07/07 10:47:11;;;;;;;0.00;0.00;;;;;;;;;;5069489;28;20052;-60
2022/07/07 10:49:39;;;;;;;0.00;0.00;;;;;;;;;;5069082;28;20910;-60
2022/07/07 10:52:19;;;;;;;0.00;0.00;;;;;;;;;;5069671;28;20057;-61
2022/07/07 10:54:53;;;;;;;0.00;0.00;;;;;;;;;;5069784;28;20056;-60
2022/07/07 10:57:20;;;;;;;0.00;0.00;;;;;;;;;;5070168;28;20490;-59
2022/07/07 11:00:00;;;;;;;0.00;0.00;;;;;;;;;;5069706;28;20064;-58
2022/07/07 11:02:47;;;;;;;0.00;0.00;;;;;;;;;;5077548;28;20044;-58
2022/07/07 11:05:13;;;;;;;0.00;0.00;;;;;;;;;;5077019;28;20091;-57
2022/07/07 11:07:40;;;;;;;0.00;0.00;;;;;;;;;;5086958;28;20053;-58
2022/07/07 11:10:11;;;;;;;0.00;0.00;;;;;;;;;;5087350;28;20056;-58
2022/07/07 11:12:54;;;;;;;0.00;0.00;;;;;;;;;;5085286;28;20507;-58
2022/07/07 11:15:20;;;;;;;0.00;0.00;;;;;;;;;;5079209;28;20057;-59
2022/07/07 11:17:47;;;;;;;0.00;0.00;;;;;;;;;;5088549;28;20060;-59
2022/07/07 11:20:17;;;;;;;0.00;0.00;;;;;;;;;;5089122;28;20509;-59
2022/07/07 11:22:50;;;;;;;0.00;0.00;;;;;;;;;;5089084;28;20151;-66
2022/07/07 11:25:18;;;;;;;0.00;0.00;;;;;;;;;;5088817;28;20057;-65
2022/07/07 11:27:44;;;;;;;;;;;;;;;;;;5080674;28;20110;-63
2022/07/07 11:30:11;;;;;;;0.00;0.00;;;;;;;;;;5088299;28;42937;-67
2022/07/07 11:32:38;;;;;;;0.00;0.00;;;;;;;;;;5087580;28;20080;-58
2022/07/07 11:35:05;;;;;;;0.00;0.00;;;;;;;;;;5084044;28;20547;-60
2022/07/07 11:37:33;;;;;;;0.00;0.00;;;;;;;;;;5086013;28;20076;-59
2022/07/07 11:39:59;;;;;;;0.00;0.00;;;;;;;;;;5088167;28;20064;-59
2022/07/07 11:42:35;;;;;;;0.00;0.00;;;;;;;;;;5094145;28;20514;-59
2022/07/07 11:45:02;;;;;;;0.22;0.13;;;;;;;;;;5085904;27;20143;-59
2022/07/07 11:47:34;;;;;;;0.00;0.00;;;;;;;;;;5085686;28;20083;-58
2022/07/07 11:50:01;;;;;;;0.00;0.00;;;;;;;;;;5086221;28;20076;-63
2022/07/07 11:52:27;;;;;;;0.00;0.00;;;;;;;;;;5089807;28;20149;-60
2022/07/07 11:54:55;;;;;;;0.00;0.00;;;;;;;;;;5089302;28;20610;-60
2022/07/07 11:57:25;;;;;;;0.00;0.00;;;;;;;;;;5099997;28;20079;-59
2022/07/07 11:59:52;;;;;;;0.00;0.00;;;;;;;;;;5093822;28;20512;-61
2022/07/07 12:02:18;;;;;;;0.00;0.00;;;;;;;;;;5099873;28;20053;-59
2022/07/07 12:04:45;;;;;;;0.00;0.00;;;;;;;;;;5101852;28;20056;-59
2022/07/07 12:07:11;;;;;;;0.00;0.00;;;;;;;;;;5106527;27;20052;-60
2022/07/07 12:09:44;;;;;;;0.00;0.00;;;;;;;;;;5080267;28;20052;-59
2022/07/07 12:12:15;;;;;;;0.00;0.00;;;;;;;;;;5101138;27;20735;-60
2022/07/07 12:14:43;;;;;;;0.00;0.00;;;;;;;;;;5101503;28;20059;-60
2022/07/07 12:17:09;;;;;;;0.00;0.00;;;;;;;;;;5092264;27;20056;-60
2022/07/07 12:19:48;;;;;;;0.00;0.00;;;;;;;;;;5105533;28;20053;-58
2022/07/07 12:22:31;;;;;;;0.00;0.00;;;;;;;;;;5097461;28;20489;-61
2022/07/07 12:25:04;;;;;;;0.00;0.00;;;;;;;;;;5090641;28;20059;-60
2022/07/07 12:27:56;;;;;;;0.00;0.00;;;;;;;;;;5079616;28;20056;-60
2022/07/07 12:30:23;;;;;;;0.00;0.00;;;;;;;;;;5098827;27;20051;-60
2022/07/07 12:32:50;;;;;;;0.00;0.00;;;;;;;;;;5094619;27;20087;-61
2022/07/07 12:35:26;;;;;;;0.00;0.00;;;;;;;;;;5094435;28;20169;-61
2022/07/07 12:37:52;;;;;;;0.00;0.00;;;;;;;;;;5102864;27;20106;-60
2022/07/07 12:40:19;;;;;;;0.00;0.00;;;;;;;;;;5097136;28;20594;-61
2022/07/07 12:42:45;;;;;;;0.00;0.00;;;;;;;;;;5094730;27;20110;-61
2022/07/07 12:45:12;;;;;;;0.00;0.00;;;;;;;;;;5099123;28;20074;-61
2022/07/07 12:47:45;;;;;;;0.00;0.00;;;;;;;;;;5074814;28;21080;-60
2022/07/07 12:50:11;;;;;;;0.00;0.00;;;;;;;;;;5099933;27;20083;-61
2022/07/07 12:52:38;;;;;;;0.00;0.00;;;;;;;;;;5086711;28;20568;-62
2022/07/07 12:55:11;;;;;;;0.00;0.00;;;;;;;;;;5088239;28;20084;-61
2022/07/07 12:57:37;;;;;;;0.00;0.00;;;;;;;;;;5086388;28;20522;-60
2022/07/07 13:00:08;;;;;;;0.00;0.00;;;;;;;;;;5081669;28;20084;-61
2022/07/07 13:02:35;;;;;;;0.00;0.00;;;;;;;;;;5082281;27;20088;-61
2022/07/07 13:05:01;;;;;;;0.00;0.00;;;;;;;;;;5069909;28;20162;-61
2022/07/07 13:07:28;;;;;;;0.00;0.00;;;;;;;;;;5075935;28;20174;-61
2022/07/07 13:09:55;;;;;;;0.00;0.00;;;;;;;;;;5080518;28;20057;-61
2022/07/07 13:12:22;;;;;;;0.00;0.00;;;;;;;;;;5079947;28;20057;-61
2022/07/07 13:14:52;;;;;;;0.03;0.03;;;;;;;;;;5083528;28;20434;-61
2022/07/07 13:17:19;;;;;;;0.00;0.00;;;;;;;;;;5085384;28;20202;-62
2022/07/07 13:19:45;;;;;;;0.00;0.00;;;;;;;;;;5080698;28;20080;-61
2022/07/07 13:22:11;;;;;;;0.00;0.00;;;;;;;;;;5086938;28;20053;-61
2022/07/07 13:24:38;;;;;;;0.00;0.00;;;;;;;;;;5084868;28;20684;-64
2022/07/07 13:27:04;;;;;;;0.00;0.00;;;;;;;;;;5067850;28;20107;-63
2022/07/07 13:29:30;;;;;;;0.00;0.00;;;;;;;;;;5076296;28;20107;-63
2022/07/07 13:31:57;;;;;;;0.00;0.00;;;;;;;;;;5067673;28;20057;-63
2022/07/07 13:34:23;;;;;;;0.00;0.00;;;;;;;;;;5066631;28;20092;-62
2022/07/07 13:36:53;;;;;;;0.15;0.10;;;;;;;;;;5067778;28;20057;-62
2022/07/07 13:39:19;;;;;;;0.00;0.00;;;;;;;;;;5078241;28;20061;-62
2022/07/07 13:41:46;;;;;;;0.00;0.00;;;;;;;;;;5076062;28;20100;-60
2022/07/07 13:44:32;;;;;;;0.00;0.00;;;;;;;;;;5067814;28;20049;-61
2022/07/07 13:46:58;;;;;;;0.00;0.00;;;;;;;;;;5067269;28;20073;-61
2022/07/07 13:49:25;;;;;;;0.00;0.00;;;;;;;;;;5079644;28;20080;-60
2022/07/07 13:51:53;;;;;;;0.00;0.00;;;;;;;;;;5087104;28;20073;-61
2022/07/07 13:54:36;;;;;;;0.00;0.00;;;;;;;;;;5087493;28;20126;-60
2022/07/07 13:57:02;;;;;;;0.00;0.00;;;;;;;;;;5083916;28;20057;-60
2022/07/07 13:59:28;;;;;;;0.03;0.03;;;;;;;;;;5068791;28;20061;-59
2022/07/07 14:01:55;;;;;;;0.00;0.00;;;;;;;;;;5066946;28;20088;-60
2022/07/07 14:04:21;;;;;;;0.00;0.00;;;;;;;;;;5065790;28;20059;-61
2022/07/07 14:06:48;;;;;;;0.00;0.00;;;;;;;;;;5067208;28;20115;-60
2022/07/07 14:09:14;;;;;;;0.00;0.00;;;;;;;;;;5069453;28;20061;-60
2022/07/07 14:11:41;;;;;;;0.00;0.00;;;;;;;;;;5069915;28;20113;-60
2022/07/07 14:14:07;;;;;;;0.47;0.10;;;;;;;;;;5069882;28;20056;-60
2022/07/07 14:16:34;;;;;;;0.00;0.00;;;;;;;;;;5069617;28;20624;-60
2022/07/07 14:19:01;;;;;;;0.00;0.00;;;;;;;;;;5075227;28;20376;-60
2022/07/07 14:21:28;;;;;;;0.00;0.00;;;;;;;;;;5081895;28;20055;-60
2022/07/07 14:23:55;;;;;;;0.00;0.00;;;;;;;;;;5072250;28;20515;-62
2022/07/07 14:26:21;;;;;;;0.00;0.00;;;;;;;;;;5070676;28;20565;-60
2022/07/07 14:28:50;;;;;;;0.00;0.00;;;;;;;;;;5084756;28;20056;-61
2022/07/07 14:31:16;;;;;;;0.00;0.00;;;;;;;;;;5072559;28;20525;-61
2022/07/07 14:33:42;;;;;;;0.00;0.00;;;;;;;;;;5069518;28;20060;-61
2022/07/07 14:36:09;;;;;;;0.00;0.00;;;;;;;;;;5069564;28;20053;-61
2022/07/07 14:38:35;;;;;;;0.00;0.00;;;;;;;;;;5069806;28;20080;-61
2022/07/07 14:41:02;;;;;;;0.00;0.00;;;;;;;;;;5069864;28;20064;-61
2022/07/07 14:43:28;;;;;;;0.00;0.00;;;;;;;;;;5068720;28;20057;-61
2022/07/07 14:45:56;;;;;;;0.00;0.00;;;;;;;;;;5070550;28;20176;-61
2022/07/07 14:48:23;;;;;;;0.00;0.00;;;;;;;;;;5069639;28;20530;-61